createdAt,value
2019-04-24T00:00:35.536Z,14.80
2019-04-24T00:03:21.752Z,14.80
2019-04-24T00:06:06.062Z,14.70
2019-04-24T00:08:25.514Z,14.70
2019-04-24T00:11:19.577Z,14.60
2019-04-24T00:19:10.685Z,14.50
2019-04-24T00:21:27.278Z,14.40
2019-04-24T00:24:14.447Z,14.40
2019-04-24T00:26:52.661Z,14.30
2019-04-24T00:36:58.440Z,14.10
2019-04-24T00:39:27.563Z,14.00
2019-04-24T00:44:14.528Z,13.90
2019-04-24T00:47:13.924Z,13.90
2019-04-24T00:49:33.360Z,13.90
2019-04-24T00:51:56.341Z,13.80
2019-04-24T00:54:25.834Z,13.70
2019-04-24T00:57:11.951Z,13.70
2019-04-24T01:05:25.349Z,13.50
2019-04-24T01:08:10.125Z,13.40
2019-04-24T01:13:15.911Z,13.20
2019-04-24T01:15:55.803Z,13.30
2019-04-24T01:18:14.534Z,13.20
2019-04-24T01:20:53.535Z,13.20
2019-04-24T01:23:23.251Z,13.20
2019-04-24T01:25:56.466Z,13.20
2019-04-24T01:28:27.699Z,13.10
2019-04-24T01:31:10.647Z,13.10
2019-04-24T01:36:49.669Z,13.00
2019-04-24T01:39:34.562Z,13.00
2019-04-24T01:42:02.222Z,12.90
2019-04-24T01:44:30.137Z,12.90
2019-04-24T01:47:12.203Z,12.90
2019-04-24T01:52:21.679Z,12.90
2019-04-24T01:57:01.691Z,12.80
2019-04-24T02:02:12.176Z,12.80
2019-04-24T02:04:48.934Z,12.70
2019-04-24T02:10:26.873Z,12.70
2019-04-24T02:12:47.749Z,12.60
2019-04-24T02:15:18.776Z,12.60
2019-04-24T02:17:47.075Z,12.60
2019-04-24T02:20:29.347Z,12.60
2019-04-24T02:22:49.515Z,12.60
2019-04-24T02:25:30.783Z,12.60
2019-04-24T02:27:56.404Z,12.60
2019-04-24T02:30:43.885Z,12.60
2019-04-24T02:33:22.661Z,12.60
2019-04-24T02:35:46.941Z,12.60
2019-04-24T02:38:17.420Z,12.60
2019-04-24T02:40:37.540Z,12.50
2019-04-24T02:45:46.547Z,12.60
2019-04-24T02:50:58.305Z,12.60
2019-04-24T02:53:24.200Z,12.60
2019-04-24T02:55:50.541Z,12.60
2019-04-24T02:58:45.615Z,12.60
2019-04-24T03:01:07.477Z,12.60
2019-04-24T03:03:45.634Z,12.60
2019-04-24T03:11:18.861Z,12.70
2019-04-24T03:14:00.169Z,12.70
2019-04-24T03:17:06.021Z,12.70
2019-04-24T03:21:42.665Z,12.80
2019-04-24T03:37:13.110Z,12.90
2019-04-24T03:39:52.578Z,12.90
2019-04-24T03:42:39.850Z,12.90
2019-04-24T03:46:57.969Z,13.00
2019-04-24T03:54:49.095Z,13.10
2019-04-24T03:57:33.962Z,13.10
2019-04-24T04:00:17.060Z,13.10
2019-04-24T04:02:45.071Z,13.10
2019-04-24T04:15:14.932Z,13.20
2019-04-24T04:20:28.150Z,13.20
2019-04-24T04:23:23.891Z,13.20
2019-04-24T04:25:37.858Z,13.30
2019-04-24T04:28:09.138Z,13.30
2019-04-24T04:33:16.824Z,13.30
2019-04-24T04:35:41.355Z,13.30
2019-04-24T04:38:26.072Z,13.30
2019-04-24T04:43:44.061Z,13.30
2019-04-24T04:48:35.393Z,13.30
2019-04-24T04:51:26.202Z,13.30
2019-04-24T04:54:01.225Z,13.30
2019-04-24T05:06:54.030Z,13.40
2019-04-24T05:11:52.507Z,13.30
2019-04-24T05:19:28.081Z,13.30
2019-04-24T05:35:09.485Z,13.40
2019-04-24T05:40:29.485Z,13.40
2019-04-24T05:48:24.344Z,13.40
2019-04-24T05:53:38.265Z,13.40
2019-04-24T05:56:12.395Z,13.50
2019-04-24T05:58:58.909Z,13.50
2019-04-24T06:01:29.596Z,13.60
2019-04-24T06:09:27.801Z,13.80
2019-04-24T06:14:36.227Z,13.90
2019-04-24T06:19:49.921Z,14.00
2019-04-24T06:29:54.921Z,14.50
2019-04-24T06:37:52.973Z,15.00
2019-04-24T06:40:27.791Z,15.00
2019-04-24T06:42:58.355Z,15.00
2019-04-24T06:47:58.415Z,15.00
2019-04-24T06:50:48.950Z,15.00
2019-04-24T06:55:38.385Z,15.10
2019-04-24T07:04:03.362Z,15.30
2019-04-24T07:09:06.409Z,15.50
2019-04-24T07:11:34.061Z,15.60
2019-04-24T07:14:09.819Z,15.70
2019-04-24T07:17:15.474Z,15.90
2019-04-24T07:19:39.287Z,15.90
2019-04-24T07:22:24.383Z,16.00
2019-04-24T07:30:04.182Z,16.20
2019-04-24T07:32:58.552Z,16.30
2019-04-24T07:35:35.053Z,16.50
2019-04-24T07:43:44.542Z,16.90
2019-04-24T07:46:06.013Z,17.00
2019-04-24T07:48:48.526Z,17.10
2019-04-24T07:51:31.205Z,17.20
2019-04-24T07:56:58.231Z,17.40
2019-04-24T08:04:35.394Z,17.60
2019-04-24T08:06:58.809Z,17.70
2019-04-24T08:20:13.924Z,18.10
2019-04-24T08:22:36.811Z,18.30
2019-04-24T08:25:12.114Z,18.40
2019-04-24T08:27:44.754Z,18.60
2019-04-24T08:30:14.638Z,18.70
2019-04-24T08:35:23.025Z,19.00
2019-04-24T08:40:53.369Z,19.30
2019-04-24T08:43:32.954Z,19.40
2019-04-24T08:45:59.008Z,19.50
2019-04-24T08:53:50.053Z,19.70
2019-04-24T08:56:22.328Z,19.70
2019-04-24T09:04:03.432Z,20.10
2019-04-24T09:06:29.722Z,20.20
2019-04-24T09:11:43.312Z,20.20
2019-04-24T09:16:59.412Z,20.20
2019-04-24T09:21:49.718Z,20.10
2019-04-24T09:24:35.583Z,20.10
2019-04-24T09:27:07.634Z,20.10
2019-04-24T09:37:25.100Z,20.20
2019-04-24T09:45:06.778Z,20.60
2019-04-24T09:47:44.801Z,20.90
2019-04-24T09:50:20.054Z,21.20
2019-04-24T09:53:00.757Z,21.50
2019-04-24T09:55:22.169Z,21.90
2019-04-24T09:57:54.605Z,22.20
2019-04-24T10:00:14.307Z,22.40
2019-04-24T10:05:36.040Z,22.80
2019-04-24T10:08:06.097Z,23.00
2019-04-24T10:10:28.111Z,23.20
2019-04-24T10:12:59.384Z,23.50
2019-04-24T10:15:43.876Z,23.70
2019-04-24T10:20:48.275Z,23.90
2019-04-24T10:23:34.793Z,24.00
2019-04-24T10:25:59.946Z,24.00
2019-04-24T10:31:39.754Z,24.00
2019-04-24T10:36:40.122Z,24.00
2019-04-24T10:39:26.539Z,24.10
2019-04-24T10:44:55.935Z,24.30
2019-04-24T10:47:46.949Z,24.40
2019-04-24T10:49:54.170Z,24.60
2019-04-24T10:52:27.397Z,24.80
2019-04-24T10:55:02.129Z,24.80
2019-04-24T10:57:41.924Z,24.90
2019-04-24T11:02:58.162Z,25.00
2019-04-24T11:05:46.891Z,25.10
2019-04-24T11:08:20.125Z,25.20
2019-04-24T11:10:47.855Z,25.30
2019-04-24T11:16:19.275Z,25.40
2019-04-24T11:18:59.358Z,25.40
2019-04-24T11:23:54.301Z,25.50
2019-04-24T11:26:25.744Z,25.70
2019-04-24T11:29:09.847Z,25.80
2019-04-24T11:32:10.517Z,25.90
2019-04-24T11:37:35.130Z,26.00
2019-04-24T11:40:38.516Z,26.00
2019-04-24T11:42:49.465Z,26.10
2019-04-24T11:45:44.789Z,26.20
2019-04-24T11:48:26.941Z,26.20
2019-04-24T11:51:11.736Z,26.20
2019-04-24T11:53:34.804Z,26.20
2019-04-24T11:55:58.868Z,26.10
2019-04-24T12:01:14.487Z,26.00
2019-04-24T12:04:24.458Z,25.80
2019-04-24T12:06:54.637Z,25.50
2019-04-24T12:09:03.150Z,25.20
2019-04-24T12:11:40.186Z,24.90
2019-04-24T12:14:13.767Z,24.70
2019-04-24T12:16:49.522Z,24.50
2019-04-24T12:22:10.055Z,24.30
2019-04-24T12:24:50.249Z,24.20
2019-04-24T12:27:17.146Z,24.10
2019-04-24T12:29:53.908Z,24.00
2019-04-24T12:32:22.060Z,24.00
2019-04-24T12:35:02.022Z,24.20
2019-04-24T12:37:37.623Z,24.30
2019-04-24T12:40:25.126Z,24.40
2019-04-24T12:42:54.443Z,24.40
2019-04-24T12:45:33.518Z,24.50
2019-04-24T12:47:57.088Z,24.60
2019-04-24T12:50:41.682Z,24.70
2019-04-24T12:53:01.663Z,24.90
2019-04-24T12:55:41.143Z,25.20
2019-04-24T12:58:28.449Z,25.40
2019-04-24T13:03:48.023Z,25.90
2019-04-24T13:09:03.033Z,26.50
2019-04-24T13:11:22.710Z,26.70
2019-04-24T13:14:13.695Z,27.00
2019-04-24T13:19:21.226Z,27.10
2019-04-24T13:21:35.987Z,26.90
2019-04-24T13:24:36.552Z,26.60
2019-04-24T13:28:04.926Z,26.30
2019-04-24T13:30:17.962Z,26.00
2019-04-24T13:32:57.160Z,25.70
2019-04-24T13:35:21.039Z,25.50
2019-04-24T13:38:03.706Z,25.40
2019-04-24T13:40:31.051Z,25.30
2019-04-24T13:42:59.185Z,25.20
2019-04-24T13:45:32.235Z,25.00
2019-04-24T13:48:07.181Z,24.90
2019-04-24T13:53:26.101Z,24.50
2019-04-24T13:55:41.637Z,24.60
2019-04-24T13:58:16.376Z,24.70
2019-04-24T14:00:47.747Z,25.10
2019-04-24T14:05:48.918Z,25.20
2019-04-24T14:08:32.980Z,25.10
2019-04-24T14:16:04.079Z,24.40
2019-04-24T14:21:06.744Z,23.70
2019-04-24T14:23:39.981Z,23.30
2019-04-24T14:26:10.011Z,23.10
2019-04-24T14:31:19.081Z,22.60
2019-04-24T14:33:41.439Z,22.30
2019-04-24T14:39:14.033Z,21.80
2019-04-24T14:44:18.315Z,21.30
2019-04-24T14:46:49.920Z,21.10
2019-04-24T14:49:12.449Z,20.90
2019-04-24T14:51:31.043Z,21.00
2019-04-24T14:56:37.603Z,21.20
2019-04-24T15:01:47.483Z,21.40
2019-04-24T15:06:50.560Z,21.40
2019-04-24T15:09:13.495Z,21.20
2019-04-24T15:12:07.318Z,21.10
2019-04-24T15:16:59.370Z,21.30
2019-04-24T15:22:06.816Z,21.30
2019-04-24T15:29:34.997Z,20.70
2019-04-24T15:34:44.499Z,20.20
2019-04-24T15:37:18.413Z,20.00
2019-04-24T15:39:49.506Z,19.90
2019-04-24T15:42:14.141Z,19.90
2019-04-24T15:44:49.993Z,20.00
2019-04-24T15:47:26.126Z,20.00
2019-04-24T15:49:55.979Z,20.10
2019-04-24T15:51:48.682Z,20.00
2019-04-24T15:54:18.722Z,19.90
2019-04-24T15:56:48.390Z,19.80
2019-04-24T15:59:45.316Z,19.60
2019-04-24T16:02:24.983Z,19.50
2019-04-24T16:07:05.046Z,19.20
2019-04-24T16:09:36.785Z,19.10
2019-04-24T16:12:07.006Z,18.90
2019-04-24T16:14:59.908Z,18.80
2019-04-24T16:17:41.353Z,18.70
2019-04-24T16:22:42.063Z,18.30
2019-04-24T16:27:58.549Z,17.90
2019-04-24T16:30:09.484Z,17.70
2019-04-24T16:32:52.490Z,17.50
2019-04-24T16:37:50.810Z,17.20
2019-04-24T16:43:13.284Z,16.90
2019-04-24T16:45:26.273Z,16.80
2019-04-24T16:50:43.459Z,16.80
2019-04-24T16:53:18.974Z,16.80
2019-04-24T16:55:35.879Z,16.90
2019-04-24T17:01:17.924Z,18.00
2019-04-24T17:03:31.202Z,18.80
2019-04-24T17:06:11.360Z,19.10
2019-04-24T17:08:41.783Z,19.30
2019-04-24T17:11:00.810Z,19.40
2019-04-24T17:13:29.065Z,19.50
2019-04-24T17:16:04.367Z,19.60
2019-04-24T17:18:37.998Z,19.60
2019-04-24T17:21:29.915Z,19.60
2019-04-24T17:23:32.367Z,19.50
2019-04-24T17:28:33.025Z,19.20
2019-04-24T17:31:14.538Z,19.00
2019-04-24T17:38:20.525Z,18.50
2019-04-24T17:40:51.285Z,18.30
2019-04-24T17:43:54.540Z,18.20
2019-04-24T17:46:15.203Z,18.10
2019-04-24T17:48:58.132Z,17.90
2019-04-24T17:51:21.927Z,17.80
2019-04-24T17:54:01.934Z,17.70
2019-04-24T17:56:33.718Z,17.60
2019-04-24T17:58:35.122Z,17.60
2019-04-24T18:01:08.355Z,17.50
2019-04-24T18:03:38.385Z,17.50
2019-04-24T18:06:08.101Z,17.50
2019-04-24T18:08:38.003Z,17.50
2019-04-24T18:11:08.164Z,17.40
2019-04-24T18:13:39.434Z,17.40
2019-04-24T18:16:09.176Z,17.40
2019-04-24T18:18:38.839Z,17.40
2019-04-24T18:21:09.068Z,17.40
2019-04-24T18:23:38.776Z,17.40
2019-04-24T18:26:12.539Z,17.40
2019-04-24T18:28:43.730Z,17.40
2019-04-24T18:31:14.210Z,17.50
2019-04-24T18:33:43.896Z,17.60
2019-04-24T18:36:16.449Z,17.90
2019-04-24T18:38:48.922Z,18.10
2019-04-24T18:41:18.567Z,18.20
2019-04-24T18:43:48.350Z,18.20
2019-04-24T18:46:18.283Z,18.10
2019-04-24T18:48:47.950Z,18.10
2019-04-24T18:51:17.633Z,18.00
2019-04-24T18:53:47.386Z,17.90
2019-04-24T18:56:17.043Z,17.80
2019-04-24T18:58:46.821Z,17.70
2019-04-24T19:01:16.952Z,17.60
2019-04-24T19:03:46.602Z,17.40
2019-04-24T19:06:28.086Z,17.30
2019-04-24T19:08:48.222Z,17.20
2019-04-24T19:11:18.128Z,17.10
2019-04-24T19:13:47.994Z,16.90
2019-04-24T19:16:17.745Z,16.80
2019-04-24T19:18:47.636Z,16.70
2019-04-24T19:21:17.317Z,16.60
2019-04-24T19:23:46.990Z,16.50
2019-04-24T19:26:17.584Z,16.40
2019-04-24T19:28:47.264Z,16.30
2019-04-24T19:31:16.916Z,16.20
2019-04-24T19:33:46.655Z,16.10
2019-04-24T19:36:16.358Z,16.00
2019-04-24T19:38:46.155Z,15.90
2019-04-24T19:41:16.601Z,15.80
2019-04-24T19:43:51.091Z,15.70
2019-04-24T19:46:23.760Z,15.60
2019-04-24T19:48:53.443Z,15.50
2019-04-24T19:51:23.189Z,15.40
2019-04-24T19:53:53.558Z,15.30
2019-04-24T19:56:23.449Z,15.20
2019-04-24T19:58:53.099Z,15.10
2019-04-24T20:01:26.610Z,15.10
2019-04-24T20:03:56.574Z,15.00
2019-04-24T20:06:26.291Z,14.90
2019-04-24T20:08:57.419Z,14.90
2019-04-24T20:11:28.759Z,14.80
2019-04-24T20:13:59.416Z,14.70
2019-04-24T20:16:29.231Z,14.70
2019-04-24T20:18:58.938Z,14.60
2019-04-24T20:21:28.864Z,14.60
2019-04-24T20:24:00.025Z,14.50
2019-04-24T20:26:31.194Z,14.50
2019-04-24T20:29:01.177Z,14.40
2019-04-24T20:31:30.838Z,14.40
2019-04-24T20:34:01.365Z,14.40
2019-04-24T20:36:31.572Z,14.30
2019-04-24T20:39:02.096Z,14.30
2019-04-24T20:41:33.150Z,14.30
2019-04-24T20:44:06.297Z,14.20
2019-04-24T20:46:35.943Z,14.20
2019-04-24T20:49:05.610Z,14.20
2019-04-24T20:51:35.326Z,14.10
2019-04-24T20:54:05.010Z,14.10
2019-04-24T20:56:37.491Z,14.10
2019-04-24T20:59:07.140Z,14.00
2019-04-24T21:01:36.889Z,14.00
2019-04-24T21:04:06.626Z,14.00
2019-04-24T21:06:39.441Z,14.00
2019-04-24T21:09:25.477Z,14.00
2019-04-24T21:11:55.772Z,13.30
2019-04-24T21:14:25.442Z,13.90
2019-04-24T21:16:55.283Z,13.90
2019-04-24T21:19:25.849Z,13.90
2019-04-24T21:21:56.939Z,13.80
2019-04-24T21:24:29.178Z,13.80
2019-04-24T21:26:59.608Z,13.80
2019-04-24T21:29:29.338Z,13.70
2019-04-24T21:31:59.030Z,13.70
2019-04-24T21:34:28.808Z,13.70
2019-04-24T21:36:58.522Z,13.60
2019-04-24T21:39:30.149Z,13.60
2019-04-24T21:41:59.603Z,13.60
2019-04-24T21:44:29.761Z,13.50
2019-04-24T21:46:59.641Z,13.50
2019-04-24T21:49:29.303Z,13.50
2019-04-24T21:51:58.978Z,13.40
2019-04-24T21:54:28.791Z,13.40
2019-04-24T21:56:58.787Z,13.30
2019-04-24T21:59:29.102Z,13.30
2019-04-24T22:02:10.727Z,13.30
2019-04-24T22:04:47.466Z,13.30
2019-04-24T22:07:21.822Z,13.20
2019-04-24T22:09:52.059Z,13.20
2019-04-24T22:12:22.369Z,13.20
2019-04-24T22:14:52.354Z,13.20
2019-04-24T22:17:22.003Z,13.20
2019-04-24T22:19:51.741Z,13.20
2019-04-24T22:22:23.208Z,13.20
2019-04-24T22:24:57.074Z,13.20
2019-04-24T22:27:32.221Z,13.20
2019-04-24T22:30:03.071Z,13.20
2019-04-24T22:32:34.722Z,13.20
2019-04-24T22:35:12.319Z,13.20
2019-04-24T22:37:42.383Z,13.20
2019-04-24T22:40:13.772Z,13.20
2019-04-24T22:42:43.918Z,13.30
2019-04-24T22:45:14.672Z,13.30
2019-04-24T22:47:44.327Z,13.30
2019-04-24T22:50:14.791Z,13.40
2019-04-24T22:52:47.074Z,13.40
2019-04-24T22:55:21.924Z,13.40
2019-04-24T22:57:51.670Z,13.40
2019-04-24T23:00:27.858Z,13.40
2019-04-24T23:02:57.508Z,13.40
2019-04-24T23:05:27.812Z,13.40
2019-04-24T23:07:59.951Z,13.40
2019-04-24T23:10:37.287Z,13.40
2019-04-24T23:13:03.497Z,13.40
2019-04-24T23:15:35.686Z,13.40
2019-04-24T23:18:06.948Z,13.50
2019-04-24T23:20:47.101Z,13.40
2019-04-24T23:23:18.692Z,13.40
2019-04-24T23:25:54.395Z,13.40
2019-04-24T23:28:25.724Z,13.40
2019-04-24T23:31:13.235Z,13.30
2019-04-24T23:33:46.932Z,13.30
2019-04-24T23:36:16.612Z,13.20
2019-04-24T23:38:48.627Z,13.20
2019-04-24T23:41:18.293Z,13.20
2019-04-24T23:43:48.137Z,13.10
2019-04-24T23:46:17.796Z,13.10
2019-04-24T23:48:49.363Z,13.10
2019-04-24T23:51:21.107Z,13.00
2019-04-24T23:53:51.425Z,13.00
2019-04-24T23:56:23.275Z,13.00
2019-04-24T23:58:55.298Z,13.00
